AirNav   Pilot Hours Calculator
 
 966 users online  

67R Rio Grande City Municipal Airport
Rio Grande City, Texas, USA

GOING TO RIO GRANDE CITY?


FAA INFORMATION EFFECTIVE 20 MAY 2021

Location

FAA Identifier: 67R
Lat/Long: 26-25-27.4200N 098-50-45.8900W
26-25.457000N 098-50.764833W
26.4242833,-98.8460806
(estimated)
Elevation: 290.3 ft. / 88.5 m (surveyed)
Variation: 07E (1990)
From city: 3 miles NW of RIO GRANDE CITY, TX
Time zone: UTC -5 (UTC -6 during Standard Time)
Zip code: 78582

Airport Operations

Airport use: Open to the public
Activation date: 03/1971
Control tower: no
ARTCC: HOUSTON CENTER
FSS: SAN ANGELO FLIGHT SERVICE STATION
NOTAMs facility: SJT (NOTAM-D service available)
Attendance: UNATNDD
Wind indicator: lighted
Segmented circle: yes
Lights: MIRL RWY 16/34 PRESET LOW INTST; TO INCR INTST ACTVT - CTAF.
Beacon: white-green (lighted land airport)
Operates sunset to sunrise.

Airport Communications

CTAF: 122.9

Nearby radio navigation aids

VOR radial/distance  VOR name  Freq  Var
MFEr286/35.9MC ALLEN VOR/DME117.2009E

Airport Services

Parking: tiedowns

Runway Information

Runway 16/34

Dimensions: 4000 x 75 ft. / 1219 x 23 m
Surface: asphalt, in good condition
Weight bearing capacity: 
Single wheel: 12.5
Runway edge lights: medium intensity
RUNWAY 16  RUNWAY 34
Latitude: 26-25.707367N26-25.081167N
Longitude: 098-50.858500W098-50.626000W
Elevation: 290.3 ft.273.1 ft.
Traffic pattern: leftleft
Runway heading: 155 magnetic, 162 true335 magnetic, 342 true
Markings: nonprecision, in good conditionnonprecision, in good condition
Touchdown point: yes, no lightsyes, no lights
Obstructions: 26 ft. trees, 1050 ft. from runway, 122 ft. left of centerline, 32:1 slope to clearnone

Airport Ownership and Management from official FAA records

Ownership: Publicly-owned
Owner: CITY OF RIO GRANDE CITY
5332 E. US-83
RIO GRANDE CITY, TX 78582
Phone 956-487-0672
Manager: MANUEL M. MUNIZ
5332 E. US-83
RIO GRANDE CITY, TX 78582
Phone 956-487-5312
FIRE CHIEF/ARPT MGR.

Airport Operational Statistics

Aircraft based on the field: 1
Helicopters: 1
    
Aircraft operations: avg 35/week *
99% local general aviation
1% transient general aviation
* for 12-month period ending 06 May 2020

Additional Remarks

ARPT GATE CLSD AND LOCKED CALL 956-487-5312 FOR ACCESS. NO PUBLIC PHONE WITHIN ARPT PROPERTY. TERMINAL BLDG LOCKED.
FOR CD CTC HOUSTON ARTCC AT 281-230-5622.

Instrument Procedures

There are no published instrument procedures at 67R.

Some nearby airports with instrument procedures:

KMFE - Mc Allen Miller International Airport (36 nm SE)
KEBG - South Texas International Airport at Edinburg (39 nm E)
KTXW - Mid Valley Airport (49 nm E)
KHBV - Jim Hogg County Airport (56 nm N)
KBKS - Brooks County Airport (61 nm NE)
 
Loc | Ops | Rwys | IFR | FBO | Links
Com | Nav | Svcs | Stats | Notes
Area around 67R (Rio Grande City Municipal Airport)
 
Road maps at: MapQuest Bing Google
 
Aerial photo
WARNING: Photo may not be current or correct
Aerial photo of 67R (Rio Grande City Municipal Airport)
Photo taken 22-Feb-2008
from about 2000ft looking almost due south

Do you have a better or more recent aerial photo of Rio Grande City Municipal Airport that you would like to share? If so, please send us your photo.

 
Sectional chart

 
Airport distance calculator
Flying to Rio Grande City Municipal Airport? Find the distance to fly.

From to 67R

Sunrise and sunset
Times for 15-Jun-2021
 Local
(UTC-5)
 Zulu
(UTC)
Morning civil twilight06:1711:17
Sunrise06:4311:43
Sunset20:2801:28
Evening civil twilight20:5501:55

Current date and time
Zulu (UTC)  15-Jun-2021 12:37:14
Local (UTC-5)  15-Jun-2021 07:37:14
 
METAR
KMFE 
35nm SE 
151153Z 00000KT 10SM CLR 26/23 A2994 RMK AO2 SLP136 T02560228 10256 20239 55001
KEBG 
39nm E 
151215Z AUTO 00000KT 7SM CLR 23/22 A2995 RMK AO2 T02250223 TSNO
KAPY 
39nm NW 
151215Z AUTO 00000KT 10SM CLR 25/22 A2997 RMK AO2 T02480220 TSNO
MMRX 
42nm SE 
151150Z 00000KT 5SM SKC 23/21 A2993 RMK SLP133 5//// 953 BR RTS
KTXW 
49nm E 
151215Z AUTO 07003KT 7SM SCT110 23/22 A2994 RMK AO2 T02330224
TAF
KMFE 
35nm SE 
151120Z 1512/1612 VRB03KT P6SM FEW030 FM151400 06005KT P6SM FEW060 FM152100 10010KT P6SM SCT100 FM160300 VRB04KT P6SM SCT050
MMRX 
42nm SE 
150618Z 1506/1606 09005KT P6SM SCT020 TEMPO 1511/1515 5SM HZ BKN018 FM151700 06014KT P6SM BKN020 BKN250 PROB40 1517/1521 5SM -RA FM160500 07007KT P6SM SCT020
NOTAMs
Click for the latest NOTAMs
NOTAMs are issued by the DoD/FAA and will open in a separate window not controlled by AirNav.

 

 
 

Would you like to see your business listed on this page?

 If your business provides an interesting product or service to pilots, flight crews, aircraft, or users of the Rio Grande City Municipal Airport, you should consider listing it here.  To start the listing process, click on the button below
 
Add a business
 

Other Pages about Rio Grande City Municipal Airport

Update a link
 
Copyright © AirNav, LLC. All rights reserved. Privacy Policy  Contact